createdAt,value
2022-11-12T00:00:48.922Z,92790.13
2022-11-12T00:03:15.538Z,92783.59
2022-11-12T00:05:42.197Z,92780.47
2022-11-12T00:08:08.792Z,92777.56
2022-11-12T00:10:35.607Z,92779.97
2022-11-12T00:13:02.385Z,92778.94
2022-11-12T00:15:29.115Z,92763.19
2022-11-12T00:17:55.773Z,92756.94
2022-11-12T00:20:22.510Z,92756.91
2022-11-12T00:22:49.207Z,92758.25
2022-11-12T00:25:15.923Z,92762.09
2022-11-12T00:27:42.623Z,92762.63
2022-11-12T00:30:09.599Z,92761.28
2022-11-12T00:32:37.526Z,92757.59
2022-11-12T00:35:06.040Z,92757.34
2022-11-12T00:37:33.697Z,92766.50
2022-11-12T00:40:00.535Z,92766.75
2022-11-12T00:42:27.146Z,92773.03
2022-11-12T00:44:53.851Z,92757.88
2022-11-12T00:47:20.662Z,92755.50
2022-11-12T00:49:47.435Z,92747.34
2022-11-12T00:52:14.027Z,92757.63
2022-11-12T00:54:40.664Z,92762.56
2022-11-12T00:57:07.292Z,92752.84
2022-11-12T00:59:33.914Z,92755.19
2022-11-12T01:02:00.555Z,92755.97
2022-11-12T01:04:27.163Z,92760.91
2022-11-12T01:06:53.910Z,92761.75
2022-11-12T01:09:20.582Z,92757.03
2022-11-12T01:11:48.139Z,92747.22
2022-11-12T01:14:14.829Z,92744.06
2022-11-12T01:16:42.944Z,92742.06
2022-11-12T01:19:10.665Z,92747.28
2022-11-12T01:21:39.523Z,92745.69
2022-11-12T01:24:06.485Z,92739.41
2022-11-12T01:26:33.076Z,92735.72
2022-11-12T01:28:59.792Z,92740.16
2022-11-12T01:31:28.483Z,92736.84
2022-11-12T01:33:56.860Z,92742.63
2022-11-12T01:36:23.714Z,92738.66
2022-11-12T01:38:51.006Z,92738.94
2022-11-12T01:41:26.088Z,92721.69
2022-11-12T01:44:15.677Z,92714.13
2022-11-12T01:46:47.613Z,92721.66
2022-11-12T01:49:35.039Z,92714.06
2022-11-12T01:52:16.989Z,92715.16
2022-11-12T01:54:44.034Z,92703.38
2022-11-12T01:57:10.682Z,92707.00
2022-11-12T01:59:40.507Z,92704.38
2022-11-12T02:02:07.216Z,92700.72
2022-11-12T02:04:33.867Z,92709.06
2022-11-12T02:07:00.545Z,92697.59
2022-11-12T02:09:27.234Z,92705.34
2022-11-12T02:11:53.834Z,92705.88
2022-11-12T02:14:20.402Z,92708.47
2022-11-12T02:16:47.060Z,92710.50
2022-11-12T02:19:15.705Z,92712.84
2022-11-12T02:21:42.420Z,92713.00
2022-11-12T02:24:11.961Z,92708.75
2022-11-12T02:26:49.461Z,92711.44
2022-11-12T02:29:16.051Z,92709.34
2022-11-12T02:31:42.797Z,92714.47
2022-11-12T02:34:09.477Z,92710.88
2022-11-12T02:36:36.049Z,92711.69
2022-11-12T02:39:03.307Z,92717.03
2022-11-12T02:41:30.279Z,92720.91
2022-11-12T02:43:56.968Z,92720.16
2022-11-12T02:46:23.658Z,92717.50
2022-11-12T02:48:50.297Z,92723.03
2022-11-12T02:51:16.943Z,92723.28
2022-11-12T02:53:43.595Z,92725.94
2022-11-12T02:56:10.302Z,92721.56
2022-11-12T02:58:36.989Z,92734.63
2022-11-12T03:01:03.771Z,92728.63
2022-11-12T03:03:30.461Z,92719.78
2022-11-12T03:05:58.561Z,92715.56
2022-11-12T03:08:25.601Z,92717.22
2022-11-12T03:10:52.648Z,92718.25
2022-11-12T03:13:19.747Z,92728.22
2022-11-12T03:15:46.415Z,92717.84
2022-11-12T03:18:13.108Z,92730.66
2022-11-12T03:20:39.785Z,92734.41
2022-11-12T03:23:08.207Z,92731.22
2022-11-12T03:25:35.005Z,92725.72
2022-11-12T03:28:05.597Z,92728.00
2022-11-12T03:30:33.932Z,92725.44
2022-11-12T03:33:00.550Z,92717.59
2022-11-12T03:35:27.234Z,92713.38
2022-11-12T03:37:53.885Z,92716.50
2022-11-12T03:40:20.468Z,92716.06
2022-11-12T03:42:47.838Z,92718.22
2022-11-12T03:45:15.141Z,92716.16
2022-11-12T03:47:45.814Z,92712.38
2022-11-12T03:50:13.161Z,92717.13
2022-11-12T03:52:39.877Z,92711.56
2022-11-12T03:55:06.703Z,92717.84
2022-11-12T03:57:33.783Z,92719.88
2022-11-12T04:00:00.492Z,92725.88
2022-11-12T04:02:30.010Z,92721.88
2022-11-12T04:05:15.054Z,92719.06
2022-11-12T04:08:00.598Z,92724.28
2022-11-12T04:10:29.189Z,92718.31
2022-11-12T04:13:14.330Z,92716.78
2022-11-12T04:15:41.198Z,92707.25
2022-11-12T04:18:43.106Z,92701.94
2022-11-12T04:21:28.618Z,92705.97
2022-11-12T04:23:55.301Z,92705.44
2022-11-12T04:26:24.979Z,92708.75
2022-11-12T04:29:10.095Z,92699.59
2022-11-12T04:31:36.727Z,92695.09
2022-11-12T04:34:21.877Z,92688.31
2022-11-12T04:36:48.529Z,92696.06
2022-11-12T04:39:15.175Z,92697.63
2022-11-12T04:42:00.323Z,92708.66
2022-11-12T04:44:45.343Z,92707.09
2022-11-12T04:47:11.913Z,92695.63
2022-11-12T04:49:38.594Z,92692.16
2022-11-12T04:52:05.175Z,92699.66
2022-11-12T04:54:32.025Z,92698.44
2022-11-12T04:56:58.653Z,92703.31
2022-11-12T04:59:25.315Z,92711.66
2022-11-12T05:01:52.176Z,92712.88
2022-11-12T05:04:18.869Z,92713.38
2022-11-12T05:06:51.606Z,92713.03
2022-11-12T05:09:22.791Z,92718.19
2022-11-12T05:11:49.552Z,92708.59
2022-11-12T05:14:16.162Z,92710.44
2022-11-12T05:16:42.954Z,92702.59
2022-11-12T05:19:09.562Z,92705.78
2022-11-12T05:21:54.924Z,92709.50
2022-11-12T05:24:40.443Z,92698.03
2022-11-12T05:27:18.658Z,92713.19
2022-11-12T05:29:45.363Z,92715.75
2022-11-12T05:32:13.726Z,92727.44
2022-11-12T05:34:40.456Z,92722.53
2022-11-12T05:37:07.592Z,92740.94
2022-11-12T05:39:34.321Z,92735.03
2022-11-12T05:42:16.069Z,92741.44
2022-11-12T05:44:42.739Z,92736.75
2022-11-12T05:47:09.366Z,92742.94
2022-11-12T05:49:36.023Z,92742.59
2022-11-12T05:52:02.661Z,92749.88
2022-11-12T05:54:29.337Z,92748.91
2022-11-12T05:56:56.036Z,92745.44
2022-11-12T05:59:22.682Z,92740.66
2022-11-12T06:01:49.422Z,92740.94
2022-11-12T06:04:16.681Z,92743.09
2022-11-12T06:06:43.651Z,92749.50
2022-11-12T06:09:10.713Z,92742.41
2022-11-12T06:11:37.625Z,92746.69
2022-11-12T06:14:04.451Z,92745.59
2022-11-12T06:16:31.429Z,92758.16
2022-11-12T06:18:58.135Z,92753.00
2022-11-12T06:21:24.955Z,92756.69
2022-11-12T06:23:53.538Z,92755.81
2022-11-12T06:26:20.254Z,92756.16
2022-11-12T06:28:47.574Z,92757.47
2022-11-12T06:31:14.549Z,92758.31
2022-11-12T06:33:41.915Z,92757.84
2022-11-12T06:36:08.942Z,92753.41
2022-11-12T06:38:37.185Z,92751.31
2022-11-12T06:41:04.569Z,92757.59
2022-11-12T06:43:31.904Z,92769.47
2022-11-12T06:46:00.886Z,92771.16
2022-11-12T06:48:28.455Z,92763.63
2022-11-12T06:50:55.974Z,92765.53
2022-11-12T06:53:22.735Z,92767.75
2022-11-12T06:55:49.481Z,92771.03
2022-11-12T06:58:16.088Z,92765.69
2022-11-12T07:00:42.788Z,92765.69
2022-11-12T07:03:09.912Z,92763.91
2022-11-12T07:05:38.202Z,92768.78
2022-11-12T07:08:05.883Z,92762.69
2022-11-12T07:10:32.632Z,92764.50
2022-11-12T07:12:59.309Z,92771.53
2022-11-12T07:15:26.009Z,92767.25
2022-11-12T07:17:52.640Z,92763.44
2022-11-12T07:20:19.210Z,92772.97
2022-11-12T07:22:45.945Z,92774.94
2022-11-12T07:25:12.558Z,92777.03
2022-11-12T07:27:39.234Z,92774.00
2022-11-12T07:30:06.467Z,92772.22
2022-11-12T07:32:34.482Z,92765.75
2022-11-12T07:35:02.915Z,92765.22
2022-11-12T07:37:29.543Z,92770.19
2022-11-12T07:39:56.164Z,92769.69
2022-11-12T07:42:22.834Z,92768.41
2022-11-12T07:44:49.398Z,92776.81
2022-11-12T07:47:16.087Z,92768.94
2022-11-12T07:49:42.734Z,92778.03
2022-11-12T07:52:09.343Z,92782.69
2022-11-12T07:54:35.961Z,92785.22
2022-11-12T07:57:03.045Z,92791.91
2022-11-12T07:59:29.747Z,92788.41
2022-11-12T08:01:56.426Z,92789.97
2022-11-12T08:04:23.088Z,92797.28
2022-11-12T08:06:49.951Z,92789.91
2022-11-12T08:09:16.781Z,92791.63
2022-11-12T08:11:43.468Z,92793.75
2022-11-12T08:14:10.117Z,92795.56
2022-11-12T08:16:36.694Z,92793.81
2022-11-12T08:19:03.482Z,92788.13
2022-11-12T08:21:30.094Z,92796.28
2022-11-12T08:23:56.733Z,92792.69
2022-11-12T08:26:23.366Z,92792.69
2022-11-12T08:28:50.163Z,92793.28
2022-11-12T08:31:19.308Z,92795.63
2022-11-12T08:33:45.938Z,92796.91
2022-11-12T08:36:14.383Z,92802.63
2022-11-12T08:38:41.216Z,92805.34
2022-11-12T08:41:10.203Z,92806.38
2022-11-12T08:43:37.170Z,92810.88
2022-11-12T08:46:04.117Z,92818.19
2022-11-12T08:48:31.046Z,92817.50
2022-11-12T08:50:57.893Z,92818.44
2022-11-12T08:53:24.822Z,92822.41
2022-11-12T08:55:57.701Z,92818.97
2022-11-12T08:58:24.967Z,92826.53
2022-11-12T09:00:52.211Z,92826.75
2022-11-12T09:03:21.306Z,92824.69
2022-11-12T09:05:48.536Z,92827.78
2022-11-12T09:08:19.984Z,92816.72
2022-11-12T09:10:46.850Z,92819.94
2022-11-12T09:13:14.250Z,92820.28
2022-11-12T09:15:41.033Z,92815.38
2022-11-12T09:18:10.619Z,92809.63
2022-11-12T09:20:37.199Z,92817.00
2022-11-12T09:23:09.396Z,92806.31
2022-11-12T09:25:36.594Z,92817.16
2022-11-12T09:28:08.395Z,92818.56
2022-11-12T09:30:36.093Z,92813.84
2022-11-12T09:33:02.742Z,92817.97
2022-11-12T09:35:29.930Z,92815.56
2022-11-12T09:37:57.927Z,92810.31
2022-11-12T09:40:25.651Z,92805.31
2022-11-12T09:42:55.065Z,92806.38
2022-11-12T09:45:28.609Z,92804.84
2022-11-12T09:47:58.126Z,92809.56
2022-11-12T09:50:27.664Z,92806.09
2022-11-12T09:53:03.223Z,92810.59
2022-11-12T09:55:38.725Z,92808.22
2022-11-12T09:58:12.501Z,92808.22
2022-11-12T10:00:44.871Z,92804.59
2022-11-12T10:03:24.889Z,92810.13
2022-11-12T10:05:54.463Z,92807.38
2022-11-12T10:08:24.228Z,92809.19
2022-11-12T10:11:15.553Z,92806.03
2022-11-12T10:14:07.637Z,92802.31
2022-11-12T10:16:43.172Z,92804.94
2022-11-12T10:19:32.548Z,92802.56
2022-11-12T10:22:17.282Z,92799.97
2022-11-12T10:24:43.918Z,92796.59
2022-11-12T10:27:19.446Z,92802.06
2022-11-12T10:30:05.023Z,92807.00
2022-11-12T10:32:31.604Z,92808.09
2022-11-12T10:34:58.302Z,92798.97
2022-11-12T10:37:35.174Z,92793.50
2022-11-12T10:40:21.820Z,92796.13
2022-11-12T10:42:59.771Z,92790.94
2022-11-12T10:45:26.365Z,92807.09
2022-11-12T10:47:52.974Z,92796.13
2022-11-12T10:50:48.496Z,92800.13
2022-11-12T10:53:15.391Z,92803.53
2022-11-12T10:55:56.590Z,92794.06
2022-11-12T10:58:23.303Z,92793.50
2022-11-12T11:00:55.765Z,92806.31
2022-11-12T11:03:34.030Z,92796.44
2022-11-12T11:06:04.291Z,92804.53
2022-11-12T11:08:36.763Z,92804.97
2022-11-12T11:11:25.040Z,92810.22
2022-11-12T11:13:55.733Z,92801.84
2022-11-12T11:16:27.190Z,92808.09
2022-11-12T11:19:02.622Z,92800.25
2022-11-12T11:21:47.344Z,92796.59
2022-11-12T11:24:23.041Z,92800.91
2022-11-12T11:27:04.775Z,92800.13
2022-11-12T11:30:10.148Z,92791.97
2022-11-12T11:32:45.837Z,92784.88
2022-11-12T11:35:21.745Z,92794.09
2022-11-12T11:37:58.268Z,92789.13
2022-11-12T11:40:34.396Z,92791.22
2022-11-12T11:43:03.886Z,92789.38
2022-11-12T11:45:36.319Z,92792.50
2022-11-12T11:48:12.933Z,92789.94
2022-11-12T11:50:45.850Z,92793.88
2022-11-12T11:53:20.262Z,92787.81
2022-11-12T11:55:58.951Z,92788.63
2022-11-12T11:58:44.259Z,92774.22
2022-11-12T12:01:11.140Z,92786.78
2022-11-12T12:03:47.793Z,92780.75
2022-11-12T12:06:14.371Z,92778.94
2022-11-12T12:09:02.398Z,92785.19
2022-11-12T12:11:47.311Z,92785.66
2022-11-12T12:14:28.575Z,92786.13
2022-11-12T12:17:04.231Z,92787.19
2022-11-12T12:19:45.902Z,92788.56
2022-11-12T12:22:15.678Z,92787.28
2022-11-12T12:24:51.142Z,92792.94
2022-11-12T12:27:37.363Z,92791.03
2022-11-12T12:30:14.900Z,92776.94
2022-11-12T12:32:45.296Z,92780.34
2022-11-12T12:35:32.022Z,92785.06
2022-11-12T12:38:20.781Z,92782.47
2022-11-12T12:40:52.702Z,92766.53
2022-11-12T12:43:39.558Z,92774.03
2022-11-12T12:46:06.198Z,92773.56
2022-11-12T12:48:34.462Z,92777.56
2022-11-12T12:51:01.441Z,92778.91
2022-11-12T12:53:28.013Z,92768.06
2022-11-12T12:56:01.721Z,92774.38
2022-11-12T12:58:42.917Z,92778.81
2022-11-12T13:01:22.058Z,92782.63
2022-11-12T13:03:58.766Z,92781.84
2022-11-12T13:06:27.705Z,92785.00
2022-11-12T13:09:00.386Z,92777.16
2022-11-12T13:12:05.219Z,92781.34
2022-11-12T13:14:31.789Z,92782.78
2022-11-12T13:16:59.474Z,92779.72
2022-11-12T13:19:30.566Z,92785.53
2022-11-12T13:22:19.157Z,92794.22
2022-11-12T13:25:06.852Z,92789.25
2022-11-12T13:27:39.646Z,92786.59
2022-11-12T13:30:18.017Z,92779.81
2022-11-12T13:32:47.453Z,92775.19
2022-11-12T13:35:17.167Z,92769.13
2022-11-12T13:38:01.588Z,92773.03
2022-11-12T13:40:49.593Z,92787.63
2022-11-12T13:43:16.208Z,92783.22
2022-11-12T13:45:46.995Z,92782.88
2022-11-12T13:48:29.857Z,92782.91
2022-11-12T13:50:59.926Z,92786.63
2022-11-12T13:53:27.286Z,92788.72
2022-11-12T13:55:55.853Z,92781.41
2022-11-12T13:58:32.246Z,92781.91
2022-11-12T14:01:00.854Z,92779.75
2022-11-12T14:03:47.310Z,92779.44
2022-11-12T14:06:19.895Z,92775.00
2022-11-12T14:09:20.271Z,92772.38
2022-11-12T14:12:09.230Z,92767.66
2022-11-12T14:15:33.122Z,92771.47
2022-11-12T14:18:26.135Z,92767.72
2022-11-12T14:20:53.010Z,92775.47
2022-11-12T14:23:24.851Z,92781.59
2022-11-12T14:25:56.042Z,92784.13
2022-11-12T14:28:26.252Z,92788.31
2022-11-12T14:30:53.208Z,92779.53
2022-11-12T14:33:26.319Z,92784.91
2022-11-12T14:35:53.727Z,92780.31
2022-11-12T14:38:23.184Z,92776.81
2022-11-12T14:40:53.697Z,92784.75
2022-11-12T14:43:43.274Z,92775.81
2022-11-12T14:46:25.562Z,92778.78
2022-11-12T14:49:03.582Z,92775.78
2022-11-12T14:51:32.080Z,92781.03
2022-11-12T14:54:02.747Z,92786.84
2022-11-12T14:56:38.298Z,92784.19
2022-11-12T14:59:05.064Z,92789.88
2022-11-12T15:02:57.412Z,92794.13
2022-11-12T15:04:21.687Z,92784.06
2022-11-12T15:06:54.995Z,92783.97
2022-11-12T15:09:35.775Z,92786.66
2022-11-12T15:12:12.651Z,92782.88
2022-11-12T15:14:39.242Z,92784.63
2022-11-12T15:17:06.145Z,92785.75
2022-11-12T15:19:32.813Z,92778.50
2022-11-12T15:22:03.462Z,92786.53
2022-11-12T15:24:36.958Z,92789.34
2022-11-12T15:27:27.135Z,92784.63
2022-11-12T15:30:07.666Z,92781.03
2022-11-12T15:32:34.435Z,92787.69
2022-11-12T15:35:01.557Z,92784.88
2022-11-12T15:37:29.355Z,92780.16
2022-11-12T15:40:00.093Z,92771.28
2022-11-12T15:42:28.771Z,92778.25
2022-11-12T15:44:59.445Z,92785.34
2022-11-12T15:47:26.371Z,92790.47
2022-11-12T15:49:54.895Z,92792.56
2022-11-12T15:52:21.820Z,92789.41
2022-11-12T15:54:48.882Z,92790.53
2022-11-12T15:57:26.144Z,92791.72
2022-11-12T16:00:08.701Z,92796.09
2022-11-12T16:02:35.549Z,92797.25
2022-11-12T16:05:02.258Z,92793.69
2022-11-12T16:07:29.084Z,92790.13
2022-11-12T16:09:55.841Z,92786.94
2022-11-12T16:12:22.446Z,92787.41
2022-11-12T16:14:49.081Z,92784.41
2022-11-12T16:17:16.562Z,92782.25
2022-11-12T16:19:43.321Z,92790.72
2022-11-12T16:22:12.597Z,92784.31
2022-11-12T16:24:42.230Z,92794.56
2022-11-12T16:27:13.485Z,92793.28
2022-11-12T16:29:40.106Z,92797.19
2022-11-12T16:32:06.868Z,92799.34
2022-11-12T16:34:33.414Z,92801.44
2022-11-12T16:37:00.107Z,92801.75
2022-11-12T16:39:26.781Z,92797.34
2022-11-12T16:41:53.433Z,92790.13
2022-11-12T16:44:20.002Z,92793.59
2022-11-12T16:46:46.746Z,92794.88
2022-11-12T16:49:16.995Z,92792.28
2022-11-12T16:51:43.658Z,92795.47
2022-11-12T16:54:10.521Z,92804.41
2022-11-12T16:56:37.272Z,92798.06
2022-11-12T16:59:04.550Z,92790.78
2022-11-12T17:01:32.015Z,92794.28
2022-11-12T17:03:58.737Z,92794.50
2022-11-12T17:06:33.961Z,92793.50
2022-11-12T17:09:00.530Z,92799.44
2022-11-12T17:11:27.199Z,92797.72
2022-11-12T17:13:53.820Z,92801.00
2022-11-12T17:16:20.412Z,92793.69
2022-11-12T17:18:47.099Z,92789.69
2022-11-12T17:21:15.357Z,92800.97
2022-11-12T17:23:42.160Z,92792.44
2022-11-12T17:26:16.625Z,92796.25
2022-11-12T17:28:43.201Z,92801.38
2022-11-12T17:31:12.260Z,92805.56
2022-11-12T17:33:45.745Z,92812.34
2022-11-12T17:36:20.106Z,92803.22
2022-11-12T17:38:46.767Z,92801.22
2022-11-12T17:41:13.694Z,92807.59
2022-11-12T17:43:40.479Z,92807.66
2022-11-12T17:46:10.636Z,92798.78
2022-11-12T17:48:37.567Z,92805.56
2022-11-12T17:51:09.890Z,92797.72
2022-11-12T17:53:36.729Z,92800.25
2022-11-12T17:56:03.667Z,92808.66
2022-11-12T17:58:30.367Z,92805.09
2022-11-12T18:01:04.298Z,92805.09
2022-11-12T18:03:31.094Z,92809.31
2022-11-12T18:05:58.682Z,92810.34
2022-11-12T18:08:25.430Z,92812.50
2022-11-12T18:10:52.635Z,92816.41
2022-11-12T18:13:19.319Z,92809.41
2022-11-12T18:15:45.991Z,92809.38
2022-11-12T18:18:12.580Z,92815.88
2022-11-12T18:20:40.707Z,92827.13
2022-11-12T18:23:07.406Z,92824.59
2022-11-12T18:25:36.306Z,92829.84
2022-11-12T18:28:02.903Z,92827.78
2022-11-12T18:30:29.531Z,92827.88
2022-11-12T18:32:56.177Z,92833.06
2022-11-12T18:35:25.886Z,92831.44
2022-11-12T18:37:55.375Z,92823.44
2022-11-12T18:40:22.133Z,92824.59
2022-11-12T18:42:49.012Z,92821.00
2022-11-12T18:45:15.736Z,92826.13
2022-11-12T18:47:42.362Z,92822.97
2022-11-12T18:50:09.351Z,92822.63
2022-11-12T18:52:36.343Z,92831.75
2022-11-12T18:55:03.964Z,92831.50
2022-11-12T18:57:30.694Z,92834.56
2022-11-12T18:59:58.224Z,92830.97
2022-11-12T19:02:24.840Z,92825.69
2022-11-12T19:04:51.558Z,92822.97
2022-11-12T19:07:18.442Z,92833.97
2022-11-12T19:09:45.285Z,92829.78
2022-11-12T19:12:11.850Z,92828.84
2022-11-12T19:14:38.565Z,92835.50
2022-11-12T19:17:05.167Z,92835.72
2022-11-12T19:19:31.798Z,92832.94
2022-11-12T19:21:58.456Z,92836.06
2022-11-12T19:24:25.042Z,92832.47
2022-11-12T19:26:51.741Z,92837.75
2022-11-12T19:29:18.379Z,92839.13
2022-11-12T19:31:46.023Z,92833.66
2022-11-12T19:34:12.657Z,92837.97
2022-11-12T19:36:39.295Z,92845.03
2022-11-12T19:39:06.065Z,92847.13
2022-11-12T19:41:34.131Z,92843.38
2022-11-12T19:44:00.820Z,92846.69
2022-11-12T19:46:27.478Z,92848.41
2022-11-12T19:48:54.850Z,92854.72
2022-11-12T19:51:21.614Z,92851.03
2022-11-12T19:53:48.357Z,92856.41
2022-11-12T19:56:17.180Z,92861.59
2022-11-12T19:58:47.276Z,92863.22
2022-11-12T20:01:16.256Z,92857.94
2022-11-12T20:03:43.110Z,92861.63
2022-11-12T20:06:11.550Z,92864.72
2022-11-12T20:08:38.490Z,92861.91
2022-11-12T20:11:05.389Z,92868.00
2022-11-12T20:13:32.141Z,92864.06
2022-11-12T20:15:59.461Z,92866.44
2022-11-12T20:18:26.793Z,92874.66
2022-11-12T20:20:55.605Z,92868.50
2022-11-12T20:23:26.431Z,92868.25
2022-11-12T20:25:53.713Z,92860.78
2022-11-12T20:28:20.404Z,92872.94
2022-11-12T20:30:47.143Z,92881.03
2022-11-12T20:33:14.304Z,92882.13
2022-11-12T20:35:40.966Z,92883.25
2022-11-12T20:38:07.761Z,92884.63
2022-11-12T20:40:34.438Z,92879.66
2022-11-12T20:43:01.102Z,92874.59
2022-11-12T20:45:27.688Z,92878.09
2022-11-12T20:47:57.159Z,92875.16
2022-11-12T20:50:23.980Z,92870.72
2022-11-12T20:52:50.756Z,92868.63
2022-11-12T20:55:18.014Z,92862.16
2022-11-12T20:57:44.827Z,92869.31
2022-11-12T21:00:14.279Z,92866.91
2022-11-12T21:02:42.565Z,92872.94
2022-11-12T21:05:09.204Z,92874.59
2022-11-12T21:07:35.878Z,92863.91
2022-11-12T21:10:02.897Z,92869.94
2022-11-12T21:12:30.588Z,92874.94
2022-11-12T21:14:57.247Z,92867.88
2022-11-12T21:17:23.947Z,92869.38
2022-11-12T21:19:50.556Z,92880.22
2022-11-12T21:22:17.266Z,92882.13
2022-11-12T21:24:43.998Z,92874.94
2022-11-12T21:27:11.773Z,92865.56
2022-11-12T21:29:38.500Z,92868.41
2022-11-12T21:32:05.491Z,92856.03
2022-11-12T21:34:32.103Z,92863.47
2022-11-12T21:36:58.757Z,92862.34
2022-11-12T21:39:25.429Z,92859.66
2022-11-12T21:41:54.022Z,92865.75
2022-11-12T21:44:21.273Z,92868.22
2022-11-12T21:46:47.864Z,92862.72
2022-11-12T21:49:14.608Z,92870.91
2022-11-12T21:51:41.284Z,92860.59
2022-11-12T21:54:08.064Z,92859.88
2022-11-12T21:56:34.895Z,92853.91
2022-11-12T21:59:03.728Z,92858.25
2022-11-12T22:01:31.717Z,92851.41
2022-11-12T22:03:59.554Z,92853.78
2022-11-12T22:06:27.928Z,92852.53
2022-11-12T22:08:55.528Z,92859.78
2022-11-12T22:11:22.369Z,92863.47
2022-11-12T22:13:49.183Z,92866.66
2022-11-12T22:16:19.936Z,92866.63
2022-11-12T22:18:47.830Z,92857.28
2022-11-12T22:21:16.058Z,92861.38
2022-11-12T22:23:42.837Z,92866.66
2022-11-12T22:26:14.270Z,92867.09
2022-11-12T22:28:41.079Z,92870.88
2022-11-12T22:31:10.819Z,92863.19
2022-11-12T22:33:37.571Z,92857.38
2022-11-12T22:36:05.612Z,92861.38
2022-11-12T22:38:33.708Z,92851.09
2022-11-12T22:41:21.422Z,92855.59
2022-11-12T22:43:55.561Z,92866.16
2022-11-12T22:46:22.799Z,92859.25
2022-11-12T22:48:49.724Z,92862.59
2022-11-12T22:51:23.551Z,92857.19
2022-11-12T22:53:57.678Z,92860.06
2022-11-12T22:56:24.214Z,92860.28
2022-11-12T22:58:51.336Z,92857.69
2022-11-12T23:01:24.629Z,92856.84
2022-11-12T23:03:54.514Z,92863.13
2022-11-12T23:06:21.230Z,92860.41
2022-11-12T23:08:47.950Z,92859.94
2022-11-12T23:11:16.250Z,92860.94
2022-11-12T23:13:43.284Z,92860.22
2022-11-12T23:16:12.527Z,92859.84
2022-11-12T23:18:39.147Z,92857.03
2022-11-12T23:21:11.162Z,92843.16
2022-11-12T23:23:37.888Z,92848.16
2022-11-12T23:26:14.498Z,92843.69
2022-11-12T23:28:41.061Z,92835.31
2022-11-12T23:31:15.593Z,92830.59
2022-11-12T23:33:52.437Z,92830.13
2022-11-12T23:36:19.197Z,92826.34
2022-11-12T23:38:45.919Z,92826.88
2022-11-12T23:41:15.372Z,92828.19
2022-11-12T23:43:42.090Z,92831.66
2022-11-12T23:46:08.944Z,92836.09
2022-11-12T23:48:35.647Z,92834.28
2022-11-12T23:51:07.020Z,92835.03
2022-11-12T23:53:34.503Z,92837.72
2022-11-12T23:56:01.393Z,92845.03
2022-11-12T23:58:28.471Z,92842.63
